createdAt,value
2023-03-14T00:00:13.882Z,100.00
2023-03-14T00:02:41.159Z,100.00
2023-03-14T00:05:08.762Z,100.00
2023-03-14T00:07:37.418Z,100.00
2023-03-14T00:10:06.134Z,100.00
2023-03-14T00:12:32.937Z,100.00
2023-03-14T00:15:00.992Z,100.00
2023-03-14T00:17:28.398Z,100.00
2023-03-14T00:19:54.938Z,100.00
2023-03-14T00:22:22.169Z,100.00
2023-03-14T00:24:48.744Z,100.00
2023-03-14T00:27:15.167Z,100.00
2023-03-14T00:29:43.542Z,100.00
2023-03-14T00:32:09.898Z,100.00
2023-03-14T00:34:36.255Z,100.00
2023-03-14T00:37:02.643Z,100.00
2023-03-14T00:39:29.086Z,100.00
2023-03-14T00:41:55.397Z,100.00
2023-03-14T00:44:21.750Z,100.00
2023-03-14T00:46:48.164Z,100.00
2023-03-14T00:49:14.609Z,100.00
2023-03-14T00:51:42.037Z,100.00
2023-03-14T00:54:08.406Z,100.00
2023-03-14T00:56:34.753Z,100.00
2023-03-14T00:59:01.277Z,100.00
2023-03-14T01:01:27.776Z,100.00
2023-03-14T01:04:23.046Z,100.00
2023-03-14T01:06:55.661Z,100.00
2023-03-14T01:09:22.111Z,100.00
2023-03-14T01:11:49.757Z,100.00
2023-03-14T01:14:16.178Z,100.00
2023-03-14T01:16:42.528Z,100.00
2023-03-14T01:19:10.413Z,100.00
2023-03-14T01:21:37.312Z,100.00
2023-03-14T01:24:06.272Z,100.00
2023-03-14T01:26:34.976Z,100.00
2023-03-14T01:29:21.307Z,100.00
2023-03-14T01:31:47.730Z,100.00
2023-03-14T01:34:14.154Z,100.00
2023-03-14T01:36:40.616Z,100.00
2023-03-14T01:39:07.093Z,100.00
2023-03-14T01:41:33.416Z,100.00
2023-03-14T01:43:59.796Z,100.00
2023-03-14T01:46:29.235Z,100.00
2023-03-14T01:49:18.804Z,100.00
2023-03-14T01:52:02.981Z,100.00
2023-03-14T01:54:34.618Z,100.00
2023-03-14T01:57:46.051Z,100.00
2023-03-14T02:00:16.782Z,100.00
2023-03-14T02:02:48.770Z,100.00
2023-03-14T02:05:26.179Z,100.00
2023-03-14T02:07:54.925Z,100.00
2023-03-14T02:10:25.666Z,100.00
2023-03-14T02:12:54.512Z,100.00
2023-03-14T02:15:20.885Z,100.00
2023-03-14T02:17:48.047Z,100.00
2023-03-14T02:20:26.002Z,100.00
2023-03-14T02:22:53.231Z,100.00
2023-03-14T02:25:41.742Z,100.00
2023-03-14T02:28:08.397Z,100.00
2023-03-14T02:30:36.051Z,100.00
2023-03-14T02:33:07.760Z,100.00
2023-03-14T02:35:42.682Z,100.00
2023-03-14T02:38:36.778Z,100.00
2023-03-14T02:41:03.652Z,100.00
2023-03-14T02:43:30.191Z,100.00
2023-03-14T02:45:56.750Z,100.00
2023-03-14T02:48:27.870Z,100.00
2023-03-14T02:50:59.913Z,100.00
2023-03-14T02:53:30.163Z,100.00
2023-03-14T02:55:56.777Z,100.00
2023-03-14T02:58:23.145Z,100.00
2023-03-14T03:00:49.946Z,100.00
2023-03-14T03:03:16.818Z,100.00
2023-03-14T03:05:44.723Z,100.00
2023-03-14T03:08:11.710Z,100.00
2023-03-14T03:10:38.069Z,100.00
2023-03-14T03:13:04.410Z,100.00
2023-03-14T03:15:30.800Z,100.00
2023-03-14T03:17:57.270Z,100.00
2023-03-14T03:20:23.667Z,100.00
2023-03-14T03:22:50.743Z,100.00
2023-03-14T03:25:17.518Z,100.00
2023-03-14T03:27:43.910Z,100.00
2023-03-14T03:30:10.730Z,100.00
2023-03-14T03:32:37.361Z,100.00
2023-03-14T03:35:05.219Z,100.00
2023-03-14T03:37:35.436Z,100.00
2023-03-14T03:40:02.086Z,100.00
2023-03-14T03:42:28.810Z,100.00
2023-03-14T03:44:55.168Z,100.00
2023-03-14T03:47:21.533Z,100.00
2023-03-14T03:49:47.937Z,100.00
2023-03-14T03:52:14.343Z,100.00
2023-03-14T03:54:40.780Z,100.00
2023-03-14T03:57:07.152Z,100.00
2023-03-14T03:59:33.516Z,100.00
2023-03-14T04:01:59.837Z,100.00
2023-03-14T04:04:26.463Z,100.00
2023-03-14T04:06:52.808Z,100.00
2023-03-14T04:09:19.158Z,100.00
2023-03-14T04:11:45.506Z,100.00
2023-03-14T04:14:11.795Z,100.00
2023-03-14T04:16:38.238Z,100.00
2023-03-14T04:19:04.559Z,100.00
2023-03-14T04:21:30.884Z,100.00
2023-03-14T04:23:57.181Z,100.00
2023-03-14T04:26:23.591Z,100.00
2023-03-14T04:28:49.967Z,100.00
2023-03-14T04:31:20.166Z,100.00
2023-03-14T04:33:47.035Z,100.00
2023-03-14T04:36:14.144Z,100.00
2023-03-14T04:38:41.103Z,100.00
2023-03-14T04:41:07.929Z,100.00
2023-03-14T04:43:34.691Z,100.00
2023-03-14T04:46:01.019Z,100.00
2023-03-14T04:48:28.281Z,100.00
2023-03-14T04:50:54.704Z,100.00
2023-03-14T04:53:21.141Z,100.00
2023-03-14T04:55:55.273Z,100.00
2023-03-14T04:58:22.901Z,100.00
2023-03-14T05:00:51.334Z,100.00
2023-03-14T05:03:19.504Z,100.00
2023-03-14T05:05:46.224Z,100.00
2023-03-14T05:08:12.775Z,100.00
2023-03-14T05:10:40.178Z,100.00
2023-03-14T05:13:06.505Z,100.00
2023-03-14T05:15:32.949Z,100.00
2023-03-14T05:17:59.413Z,100.00
2023-03-14T05:20:25.730Z,100.00
2023-03-14T05:22:52.018Z,100.00
2023-03-14T05:25:18.402Z,100.00
2023-03-14T05:27:44.736Z,100.00
2023-03-14T05:30:11.623Z,100.00
2023-03-14T05:32:38.007Z,100.00
2023-03-14T05:35:04.785Z,100.00
2023-03-14T05:37:31.111Z,100.00
2023-03-14T05:39:57.451Z,100.00
2023-03-14T05:42:23.889Z,100.00
2023-03-14T05:44:50.231Z,100.00
2023-03-14T05:47:16.590Z,100.00
2023-03-14T05:49:42.931Z,100.00
2023-03-14T05:52:09.381Z,100.00
2023-03-14T05:54:35.710Z,100.00
2023-03-14T05:57:02.013Z,100.00
2023-03-14T05:59:28.588Z,100.00
2023-03-14T06:01:54.972Z,100.00
2023-03-14T06:04:21.398Z,100.00
2023-03-14T06:06:47.818Z,100.00
2023-03-14T06:09:14.207Z,100.00
2023-03-14T06:11:40.536Z,100.00
2023-03-14T06:14:06.938Z,100.00
2023-03-14T06:16:33.428Z,100.00
2023-03-14T06:18:59.984Z,100.00
2023-03-14T06:21:26.553Z,100.00
2023-03-14T06:23:52.893Z,100.00
2023-03-14T06:26:19.321Z,100.00
2023-03-14T06:28:45.773Z,100.00
2023-03-14T06:31:12.183Z,100.00
2023-03-14T06:33:38.671Z,100.00
2023-03-14T06:36:05.307Z,100.00
2023-03-14T06:38:31.644Z,100.00
2023-03-14T06:41:04.525Z,100.00
2023-03-14T06:43:30.951Z,100.00
2023-03-14T06:45:57.521Z,100.00
2023-03-14T06:48:23.976Z,100.00
2023-03-14T06:50:50.399Z,100.00
2023-03-14T06:53:17.002Z,100.00
2023-03-14T06:55:44.173Z,100.00
2023-03-14T06:58:10.631Z,100.00
2023-03-14T07:00:36.931Z,100.00
2023-03-14T07:03:03.993Z,100.00
2023-03-14T07:05:30.795Z,100.00
2023-03-14T07:07:58.000Z,100.00
2023-03-14T07:10:24.519Z,100.00
2023-03-14T07:12:50.933Z,100.00
2023-03-14T07:15:19.287Z,100.00
2023-03-14T07:17:46.747Z,100.00
2023-03-14T07:20:13.279Z,100.00
2023-03-14T07:22:39.768Z,100.00
2023-03-14T07:25:06.706Z,100.00
2023-03-14T07:27:33.088Z,100.00
2023-03-14T07:29:59.398Z,100.00
2023-03-14T07:32:25.862Z,100.00
2023-03-14T07:34:52.267Z,100.00
2023-03-14T07:37:18.617Z,100.00
2023-03-14T07:39:44.899Z,100.00
2023-03-14T07:42:12.024Z,100.00
2023-03-14T07:44:38.481Z,100.00
2023-03-14T07:47:04.961Z,100.00
2023-03-14T07:49:31.286Z,100.00
2023-03-14T07:51:57.790Z,100.00
2023-03-14T07:54:25.648Z,100.00
2023-03-14T07:56:53.006Z,100.00
2023-03-14T07:59:20.435Z,100.00
2023-03-14T08:01:46.817Z,100.00
2023-03-14T08:04:13.332Z,100.00
2023-03-14T08:06:40.430Z,100.00
2023-03-14T08:09:06.828Z,100.00
2023-03-14T08:11:33.185Z,100.00
2023-03-14T08:13:59.734Z,100.00
2023-03-14T08:16:26.226Z,100.00
2023-03-14T08:18:52.596Z,100.00
2023-03-14T08:21:18.915Z,100.00
2023-03-14T08:23:45.350Z,100.00
2023-03-14T08:26:11.811Z,100.00
2023-03-14T08:28:38.186Z,100.00
2023-03-14T08:31:04.875Z,100.00
2023-03-14T08:33:31.681Z,100.00
2023-03-14T08:36:00.639Z,100.00
2023-03-14T08:38:27.493Z,100.00
2023-03-14T08:41:01.374Z,100.00
2023-03-14T08:43:29.447Z,100.00
2023-03-14T09:01:59.554Z,100.00
2023-03-14T09:04:26.042Z,100.00
2023-03-14T09:14:40.032Z,100.00
2023-03-14T09:17:06.477Z,100.00
2023-03-14T09:19:33.276Z,100.00
2023-03-14T09:29:58.901Z,100.00
2023-03-14T09:32:25.291Z,100.00
2023-03-14T09:34:51.763Z,100.00
2023-03-14T09:37:18.213Z,100.00
2023-03-14T09:47:34.596Z,100.00
2023-03-14T09:50:02.564Z,100.00
2023-03-14T09:52:33.093Z,100.00
2023-03-14T09:55:11.486Z,100.00
2023-03-14T09:57:38.554Z,100.00
2023-03-14T10:00:29.721Z,100.00
2023-03-14T10:03:00.479Z,100.00
2023-03-14T10:05:28.896Z,100.00
2023-03-14T10:10:25.621Z,100.00
2023-03-14T10:13:02.719Z,100.00
2023-03-14T10:15:33.773Z,100.00
2023-03-14T10:18:02.310Z,100.00
2023-03-14T10:20:35.204Z,100.00
2023-03-14T10:23:13.792Z,100.00
2023-03-14T10:25:43.164Z,100.00
2023-03-14T10:28:25.328Z,100.00
2023-03-14T10:30:51.838Z,100.00
2023-03-14T10:33:28.919Z,100.00
2023-03-14T10:35:58.089Z,100.00
2023-03-14T10:38:28.158Z,100.00
2023-03-14T10:40:55.961Z,100.00
2023-03-14T10:43:28.570Z,100.00
2023-03-14T10:45:58.870Z,100.00
2023-03-14T10:48:37.818Z,100.00
2023-03-14T10:51:06.838Z,100.00
2023-03-14T10:54:05.266Z,100.00
2023-03-14T10:56:37.476Z,100.00
2023-03-14T10:59:08.468Z,100.00
2023-03-14T11:01:42.805Z,100.00
2023-03-14T11:04:26.449Z,100.00
2023-03-14T11:07:25.275Z,100.00
2023-03-14T11:09:59.186Z,100.00
2023-03-14T11:12:40.666Z,100.00
2023-03-14T11:15:34.309Z,100.00
2023-03-14T11:18:13.143Z,100.00
2023-03-14T11:20:48.773Z,100.00
2023-03-14T11:23:40.947Z,100.00
2023-03-14T11:26:26.678Z,100.00
2023-03-14T11:28:59.006Z,100.00
2023-03-14T11:31:31.061Z,100.00
2023-03-14T11:34:23.098Z,100.00
2023-03-14T11:36:58.876Z,100.00
2023-03-14T11:39:36.458Z,100.00
2023-03-14T11:42:05.466Z,100.00
2023-03-14T11:44:38.103Z,100.00
2023-03-14T11:47:15.238Z,100.00
2023-03-14T11:49:54.142Z,100.00
2023-03-14T11:52:38.382Z,100.00
2023-03-14T11:55:32.356Z,100.00
2023-03-14T11:58:30.191Z,100.00
2023-03-14T12:00:58.890Z,100.00
2023-03-14T12:03:35.673Z,99.78
2023-03-14T12:06:26.587Z,96.82
2023-03-14T12:09:01.384Z,98.28
2023-03-14T12:11:33.927Z,93.29
2023-03-14T12:14:01.876Z,95.82
2023-03-14T12:16:35.421Z,95.69
2023-03-14T12:19:25.589Z,94.61
2023-03-14T12:21:55.909Z,90.17
2023-03-14T12:24:33.114Z,91.11
2023-03-14T12:27:03.013Z,88.24
2023-03-14T12:29:30.975Z,89.08
2023-03-14T12:32:26.009Z,87.52
2023-03-14T12:34:52.502Z,83.97
2023-03-14T12:37:30.901Z,85.91
2023-03-14T12:40:12.045Z,83.56
2023-03-14T12:43:05.101Z,84.17
2023-03-14T12:45:33.781Z,83.12
2023-03-14T12:48:15.880Z,83.23
2023-03-14T12:51:15.971Z,84.38
2023-03-14T12:53:51.248Z,82.51
2023-03-14T12:56:25.238Z,83.33
2023-03-14T12:59:14.639Z,84.74
2023-03-14T13:01:58.020Z,85.06
2023-03-14T13:04:39.069Z,86.92
2023-03-14T13:07:13.592Z,87.40
2023-03-14T13:09:56.478Z,85.50
2023-03-14T13:12:31.114Z,87.82
2023-03-14T13:15:01.248Z,90.69
2023-03-14T13:17:37.255Z,94.59
2023-03-14T13:20:29.118Z,94.19
2023-03-14T13:22:55.551Z,97.91
2023-03-14T13:25:23.514Z,95.72
2023-03-14T13:27:54.997Z,97.08
2023-03-14T13:30:44.758Z,97.39
2023-03-14T13:33:20.466Z,98.80
2023-03-14T13:35:49.328Z,100.00
2023-03-14T13:38:23.684Z,100.00
2023-03-14T13:40:52.113Z,100.00
2023-03-14T13:43:24.463Z,100.00
2023-03-14T13:45:50.910Z,100.00
2023-03-14T13:48:18.184Z,100.00
2023-03-14T13:50:53.230Z,100.00
2023-03-14T13:53:19.755Z,98.09
2023-03-14T13:55:46.101Z,100.00
2023-03-14T13:58:21.590Z,99.02
2023-03-14T14:00:59.421Z,93.47
2023-03-14T14:03:26.518Z,93.03
2023-03-14T14:05:57.504Z,91.77
2023-03-14T14:08:24.013Z,91.04
2023-03-14T14:10:51.274Z,87.79
2023-03-14T14:13:21.465Z,87.10
2023-03-14T14:15:51.491Z,83.54
2023-03-14T14:18:22.040Z,85.47
2023-03-14T14:20:49.065Z,88.62
2023-03-14T14:23:29.610Z,85.18
2023-03-14T14:26:00.989Z,83.60
2023-03-14T14:28:34.579Z,84.88
2023-03-14T14:31:09.058Z,84.33
2023-03-14T14:33:43.932Z,81.79
2023-03-14T14:36:19.081Z,82.64
2023-03-14T14:38:53.877Z,81.74
2023-03-14T14:41:21.439Z,83.13
2023-03-14T14:43:48.297Z,82.47
2023-03-14T14:46:19.430Z,82.95
2023-03-14T14:48:50.103Z,82.78
2023-03-14T14:51:25.728Z,80.92
2023-03-14T14:54:02.954Z,82.13
2023-03-14T14:56:30.369Z,81.70
2023-03-14T14:59:00.937Z,79.87
2023-03-14T15:01:33.770Z,78.86
2023-03-14T15:04:00.197Z,79.95
2023-03-14T15:06:30.049Z,78.09
2023-03-14T15:08:56.375Z,74.11
2023-03-14T15:11:25.357Z,74.98
2023-03-14T15:13:53.034Z,76.57
2023-03-14T15:16:22.639Z,76.96
2023-03-14T15:18:58.006Z,76.70
2023-03-14T15:21:25.869Z,78.40
2023-03-14T15:23:52.699Z,78.31
2023-03-14T15:26:21.669Z,78.75
2023-03-14T15:28:48.635Z,77.86
2023-03-14T15:31:18.321Z,78.74
2023-03-14T15:33:46.107Z,78.21
2023-03-14T15:36:25.770Z,77.06
2023-03-14T15:38:53.577Z,78.72
2023-03-14T15:41:20.966Z,75.50
2023-03-14T15:43:47.877Z,74.03
2023-03-14T15:46:15.641Z,74.33
2023-03-14T15:48:42.384Z,76.64
2023-03-14T15:51:09.280Z,75.70
2023-03-14T15:53:37.937Z,75.84
2023-03-14T15:56:06.588Z,76.53
2023-03-14T15:58:36.507Z,77.05
2023-03-14T16:01:03.479Z,76.67
2023-03-14T16:03:30.493Z,75.83
2023-03-14T16:05:57.415Z,77.78
2023-03-14T16:08:26.666Z,77.41
2023-03-14T16:10:53.371Z,85.79
2023-03-14T16:13:19.815Z,89.21
2023-03-14T16:15:59.478Z,92.13
2023-03-14T16:18:27.886Z,92.92
2023-03-14T16:20:58.916Z,93.83
2023-03-14T16:23:26.068Z,95.44
2023-03-14T16:25:53.644Z,96.09
2023-03-14T16:28:20.608Z,99.16
2023-03-14T16:30:47.626Z,99.07
2023-03-14T16:33:16.045Z,99.70
2023-03-14T16:35:42.674Z,99.28
2023-03-14T16:38:09.252Z,99.91
2023-03-14T16:40:35.600Z,99.31
2023-03-14T16:43:15.624Z,100.00
2023-03-14T16:45:42.837Z,100.00
2023-03-14T16:48:09.229Z,99.85
2023-03-14T16:50:35.595Z,100.00
2023-03-14T16:53:02.929Z,99.76
2023-03-14T16:55:29.293Z,100.00
2023-03-14T16:57:55.646Z,100.00
2023-03-14T17:00:22.534Z,100.00
2023-03-14T17:02:49.051Z,100.00
2023-03-14T17:05:15.455Z,99.39
2023-03-14T17:07:41.786Z,99.09
2023-03-14T17:10:08.797Z,100.00
2023-03-14T17:12:35.111Z,100.00
2023-03-14T17:15:01.488Z,100.00
2023-03-14T17:17:27.873Z,100.00
2023-03-14T17:19:54.196Z,100.00
2023-03-14T17:22:24.570Z,100.00
2023-03-14T17:24:51.676Z,100.00
2023-03-14T17:27:20.207Z,100.00
2023-03-14T17:29:47.541Z,100.00
2023-03-14T17:32:15.373Z,100.00
2023-03-14T17:34:41.752Z,100.00
2023-03-14T17:37:08.166Z,100.00
2023-03-14T17:39:34.786Z,100.00
2023-03-14T17:42:01.106Z,100.00
2023-03-14T17:44:27.482Z,100.00
2023-03-14T17:46:55.551Z,100.00
2023-03-14T17:49:21.936Z,100.00
2023-03-14T17:51:48.253Z,100.00
2023-03-14T17:54:14.648Z,100.00
2023-03-14T17:56:43.704Z,100.00
2023-03-14T17:59:13.594Z,100.00
2023-03-14T18:01:41.458Z,100.00
2023-03-14T18:04:08.493Z,100.00
2023-03-14T18:06:35.281Z,100.00
2023-03-14T18:09:04.311Z,100.00
2023-03-14T18:11:30.642Z,100.00
2023-03-14T18:13:57.173Z,100.00
2023-03-14T18:16:23.796Z,100.00
2023-03-14T18:18:50.699Z,100.00
2023-03-14T18:21:18.240Z,100.00
2023-03-14T18:23:45.138Z,100.00
2023-03-14T18:26:11.480Z,100.00
2023-03-14T18:28:37.875Z,100.00
2023-03-14T18:31:09.608Z,100.00
2023-03-14T18:33:37.724Z,100.00
2023-03-14T18:36:05.845Z,100.00
2023-03-14T18:38:33.311Z,100.00
2023-03-14T18:41:11.369Z,100.00
2023-03-14T18:43:37.705Z,100.00
2023-03-14T18:46:04.231Z,100.00
2023-03-14T18:48:31.044Z,100.00
2023-03-14T18:50:58.796Z,100.00
2023-03-14T18:53:31.826Z,100.00
2023-03-14T18:56:02.090Z,100.00
2023-03-14T18:58:29.170Z,100.00
2023-03-14T19:01:01.408Z,100.00
2023-03-14T19:03:28.685Z,100.00
2023-03-14T19:05:56.639Z,100.00
2023-03-14T19:08:25.634Z,100.00
2023-03-14T19:10:54.942Z,100.00
2023-03-14T19:13:25.637Z,100.00
2023-03-14T19:15:52.022Z,100.00
2023-03-14T19:18:18.382Z,100.00
2023-03-14T19:21:05.294Z,100.00
2023-03-14T19:23:33.330Z,100.00
2023-03-14T19:25:59.835Z,100.00
2023-03-14T19:28:26.180Z,100.00
2023-03-14T19:30:52.689Z,100.00
2023-03-14T19:33:19.899Z,100.00
2023-03-14T19:35:47.456Z,100.00
2023-03-14T19:38:14.263Z,100.00
2023-03-14T19:40:42.194Z,100.00
2023-03-14T19:43:09.855Z,100.00
2023-03-14T19:45:37.209Z,100.00
2023-03-14T19:48:05.756Z,100.00
2023-03-14T19:50:32.620Z,100.00
2023-03-14T19:52:59.156Z,100.00
2023-03-14T19:55:26.391Z,100.00
2023-03-14T19:57:54.167Z,100.00
2023-03-14T20:00:22.059Z,100.00
2023-03-14T20:02:51.617Z,98.35
2023-03-14T20:05:22.969Z,99.36
2023-03-14T20:07:50.075Z,98.10
2023-03-14T20:10:19.203Z,99.50
2023-03-14T20:12:46.049Z,100.00
2023-03-14T20:15:18.118Z,99.12
2023-03-14T20:17:45.908Z,98.17
2023-03-14T20:20:12.768Z,99.65
2023-03-14T20:22:39.166Z,99.74
2023-03-14T20:25:06.871Z,100.00
2023-03-14T20:27:34.508Z,99.84
2023-03-14T20:30:02.215Z,100.00
2023-03-14T20:32:28.990Z,100.00
2023-03-14T20:34:55.350Z,100.00
2023-03-14T20:37:22.869Z,100.00
2023-03-14T20:39:50.157Z,100.00
2023-03-14T20:42:17.861Z,100.00
2023-03-14T20:44:44.882Z,100.00
2023-03-14T20:47:12.751Z,100.00
2023-03-14T20:49:39.168Z,100.00
2023-03-14T20:52:05.941Z,100.00
2023-03-14T20:54:32.666Z,100.00
2023-03-14T20:56:59.020Z,100.00
2023-03-14T20:59:25.347Z,100.00
2023-03-14T21:01:51.769Z,100.00
2023-03-14T21:04:18.282Z,100.00
2023-03-14T21:06:45.804Z,100.00
2023-03-14T21:09:12.403Z,100.00
2023-03-14T21:11:41.063Z,100.00
2023-03-14T21:14:07.390Z,100.00
2023-03-14T21:16:33.719Z,100.00
2023-03-14T21:19:00.900Z,100.00
2023-03-14T21:21:27.218Z,100.00
2023-03-14T21:23:54.148Z,100.00
2023-03-14T21:26:21.538Z,100.00
2023-03-14T21:28:47.823Z,100.00
2023-03-14T21:31:14.243Z,100.00
2023-03-14T21:33:40.663Z,100.00
2023-03-14T21:36:07.436Z,100.00
2023-03-14T21:38:33.797Z,100.00
2023-03-14T21:41:01.314Z,100.00
2023-03-14T21:43:28.073Z,100.00
2023-03-14T21:45:54.492Z,100.00
2023-03-14T21:48:25.076Z,100.00
2023-03-14T21:50:51.645Z,99.38
2023-03-14T21:53:18.038Z,97.92
2023-03-14T21:55:46.539Z,97.50
2023-03-14T21:58:16.934Z,97.72
2023-03-14T22:00:49.269Z,99.99
2023-03-14T22:03:17.721Z,98.22
2023-03-14T22:05:45.908Z,100.00
2023-03-14T22:08:13.926Z,100.00
2023-03-14T22:10:45.380Z,100.00
2023-03-14T22:13:12.149Z,100.00
2023-03-14T22:15:38.605Z,100.00
2023-03-14T22:18:05.077Z,100.00
2023-03-14T22:20:31.458Z,100.00
2023-03-14T22:22:57.866Z,100.00
2023-03-14T22:25:24.218Z,99.97
2023-03-14T22:27:51.054Z,100.00
2023-03-14T22:30:17.780Z,100.00
2023-03-14T22:32:44.148Z,100.00
2023-03-14T22:35:10.728Z,98.88
2023-03-14T22:37:37.038Z,100.00
2023-03-14T22:40:03.860Z,99.06
2023-03-14T22:42:30.265Z,100.00
2023-03-14T22:44:56.554Z,99.11
2023-03-14T22:47:22.856Z,97.55
2023-03-14T22:49:49.247Z,99.71
2023-03-14T22:52:15.772Z,99.06
2023-03-14T22:54:42.113Z,100.00
2023-03-14T22:57:08.570Z,100.00
2023-03-14T22:59:34.894Z,100.00
2023-03-14T23:02:01.258Z,100.00
2023-03-14T23:04:27.693Z,99.72
2023-03-14T23:06:53.990Z,100.00
2023-03-14T23:09:21.331Z,100.00
2023-03-14T23:11:47.795Z,100.00
2023-03-14T23:14:14.111Z,100.00
2023-03-14T23:16:41.159Z,100.00
2023-03-14T23:19:09.633Z,99.38
2023-03-14T23:21:36.052Z,100.00
2023-03-14T23:24:05.557Z,99.17
2023-03-14T23:26:35.198Z,100.00
2023-03-14T23:29:05.300Z,100.00
2023-03-14T23:31:32.425Z,98.65
2023-03-14T23:33:58.839Z,98.88
2023-03-14T23:36:25.261Z,99.24
2023-03-14T23:38:51.921Z,99.50
2023-03-14T23:41:18.310Z,99.15
2023-03-14T23:43:45.498Z,100.00
2023-03-14T23:46:12.362Z,99.77
2023-03-14T23:48:39.333Z,100.00
2023-03-14T23:51:08.173Z,100.00
2023-03-14T23:53:34.940Z,100.00
2023-03-14T23:56:02.537Z,100.00
2023-03-14T23:58:30.064Z,100.00
